AEE509 EDDH-LGTS
Flight info
| Callsign | AEE509 |
|---|---|
| Flight time | N/A |
| Altitude | 35000 |
| Route | AMLUH M852 DENIX DCT ZUCKA DCT SODRO DCT RUDNO DCT LAMSI DCT LURID DCT PODOB DCT MEDUX UM867 KOGAT DCT TALAS N130 ALIKO |
| Aircraft | A320/M-SDE2GHIJ1RTWY/SB1 |
Departure
| Time | 2026-05-06 14:53 |
|---|---|
| Airport | Hamburg Helmut Schmidt Airport (EDDH) |
Arrival
| Time | N/A |
|---|---|
| Airport | Thessaloniki Macedonia International Airport (LGTS) |
| Time | Latitude | Longitude | Altitude | Speed | Heading |
|---|---|---|---|---|---|
| 2026-05-06 14:02 | 53.62842 | 10.00210 | 48 ft | 0 kts | 62° |
| 2026-05-06 14:28 | 53.62839 | 10.00199 | 47 ft | 4 kts | 62° |
| 2026-05-06 14:29 | 53.62826 | 10.00159 | 45 ft | 4 kts | 62° |
| 2026-05-06 14:29 | 53.62816 | 10.00129 | 47 ft | 4 kts | 46° |
| 2026-05-06 14:29 | 53.62795 | 10.00116 | 47 ft | 4 kts | 340° |
| 2026-05-06 14:29 | 53.62779 | 10.00128 | 46 ft | 0 kts | 333° |
| 2026-05-06 14:43 | 53.62782 | 10.00126 | 46 ft | 2 kts | 333° |
| 2026-05-06 14:43 | 53.62802 | 10.00109 | 48 ft | 4 kts | 333° |
| 2026-05-06 14:43 | 53.62819 | 10.00094 | 48 ft | 0 kts | 333° |
| 2026-05-06 14:44 | 53.62819 | 10.00093 | 48 ft | 0 kts | 333° |
| 2026-05-06 14:45 | 53.62851 | 10.00048 | 48 ft | 0 kts | 301° |
| 2026-05-06 14:49 | 53.62855 | 10.00032 | 48 ft | 4 kts | 290° |
| 2026-05-06 14:49 | 53.62849 | 9.99973 | 46 ft | 7 kts | 244° |
| 2026-05-06 14:49 | 53.62842 | 9.99949 | 46 ft | 0 kts | 242° |
| 2026-05-06 14:51 | 53.62841 | 9.99946 | 46 ft | 2 kts | 242° |
| 2026-05-06 14:52 | 53.62823 | 9.99889 | 46 ft | 9 kts | 243° |
| 2026-05-06 14:52 | 53.62807 | 9.99830 | 42 ft | 4 kts | 253° |
| 2026-05-06 14:52 | 53.62817 | 9.99791 | 45 ft | 4 kts | 320° |
| 2026-05-06 14:52 | 53.62847 | 9.99763 | 45 ft | 6 kts | 332° |
| 2026-05-06 14:53 | 53.63013 | 9.99619 | 45 ft | 62 kts | 333° |
| 2026-05-06 14:53 | 53.63611 | 9.99104 | 47 ft | 127 kts | 332° |
| 2026-05-06 14:53 | 53.64554 | 9.98295 | 147 ft | 168 kts | 336° |
| 2026-05-06 14:53 | 53.65574 | 9.97390 | 936 ft | 167 kts | 337° |
| 2026-05-06 14:54 | 53.66617 | 9.96499 | 1711 ft | 169 kts | 339° |
| 2026-05-06 14:54 | 53.67699 | 9.95604 | 2209 ft | 182 kts | 340° |
| 2026-05-06 14:54 | 53.68896 | 9.94794 | 2618 ft | 193 kts | 353° |
| 2026-05-06 14:54 | 53.70240 | 9.94650 | 3165 ft | 194 kts | 8° |
| 2026-05-06 14:55 | 53.71626 | 9.94784 | 3632 ft | 208 kts | 7° |
| 2026-05-06 14:55 | 53.73115 | 9.95024 | 4088 ft | 216 kts | 21° |
| 2026-05-06 14:55 | 53.74339 | 9.96348 | 4830 ft | 211 kts | 53° |
| 2026-05-06 14:55 | 53.74907 | 9.98608 | 5474 ft | 213 kts | 84° |
| 2026-05-06 14:56 | 53.74770 | 10.01110 | 6195 ft | 217 kts | 103° |
| 2026-05-06 14:56 | 53.74292 | 10.03558 | 6919 ft | 223 kts | 112° |
| 2026-05-06 14:56 | 53.73552 | 10.05892 | 7634 ft | 228 kts | 121° |
| 2026-05-06 14:56 | 53.72578 | 10.08039 | 8372 ft | 232 kts | 130° |
| 2026-05-06 14:57 | 53.71538 | 10.10197 | 8886 ft | 246 kts | 121° |
| 2026-05-06 14:57 | 53.70672 | 10.12837 | 9194 ft | 267 kts | 114° |
| 2026-05-06 14:57 | 53.69867 | 10.15772 | 9654 ft | 282 kts | 114° |
| 2026-05-06 14:57 | 53.68936 | 10.18727 | 10238 ft | 292 kts | 126° |
| 2026-05-06 14:58 | 53.67369 | 10.21070 | 10474 ft | 314 kts | 150° |
| 2026-05-06 14:58 | 53.65264 | 10.22411 | 10754 ft | 332 kts | 163° |
| 2026-05-06 14:58 | 53.63014 | 10.23358 | 11458 ft | 333 kts | 166° |
| 2026-05-06 14:58 | 53.60763 | 10.24246 | 12220 ft | 332 kts | 166° |
| 2026-05-06 14:59 | 53.58504 | 10.25180 | 12876 ft | 336 kts | 165° |
| 2026-05-06 14:59 | 53.56228 | 10.26173 | 13496 ft | 339 kts | 165° |
| 2026-05-06 14:59 | 53.53977 | 10.27188 | 14063 ft | 342 kts | 165° |
| 2026-05-06 14:59 | 53.51671 | 10.28244 | 14624 ft | 345 kts | 165° |
| 2026-05-06 15:00 | 53.49345 | 10.29313 | 15143 ft | 348 kts | 165° |
| 2026-05-06 15:00 | 53.46999 | 10.30391 | 15675 ft | 350 kts | 166° |
| 2026-05-06 15:00 | 53.44640 | 10.31470 | 16210 ft | 353 kts | 166° |
| 2026-05-06 15:00 | 53.42262 | 10.32556 | 16736 ft | 356 kts | 166° |
| 2026-05-06 15:01 | 53.39858 | 10.33645 | 17246 ft | 359 kts | 167° |
| 2026-05-06 15:01 | 53.37442 | 10.34733 | 17768 ft | 361 kts | 167° |
| 2026-05-06 15:01 | 53.34996 | 10.35831 | 18238 ft | 365 kts | 167° |
| 2026-05-06 15:01 | 53.32541 | 10.36931 | 18672 ft | 367 kts | 167° |
| 2026-05-06 15:02 | 53.30058 | 10.38041 | 19097 ft | 370 kts | 167° |
| 2026-05-06 15:02 | 53.27557 | 10.39159 | 19527 ft | 373 kts | 167° |
| 2026-05-06 15:02 | 53.25039 | 10.40282 | 19938 ft | 376 kts | 167° |
| 2026-05-06 15:02 | 53.22500 | 10.41413 | 20359 ft | 379 kts | 166° |
| 2026-05-06 15:03 | 53.19947 | 10.42549 | 20791 ft | 382 kts | 166° |
| 2026-05-06 15:03 | 53.17373 | 10.43692 | 21232 ft | 384 kts | 166° |
| 2026-05-06 15:03 | 53.14776 | 10.44846 | 21679 ft | 387 kts | 166° |
| 2026-05-06 15:03 | 53.12153 | 10.45917 | 22117 ft | 389 kts | 169° |
| 2026-05-06 15:04 | 53.09484 | 10.46761 | 22538 ft | 391 kts | 170° |
| 2026-05-06 15:04 | 53.06837 | 10.47573 | 22938 ft | 393 kts | 170° |
| 2026-05-06 15:04 | 53.04144 | 10.48406 | 23331 ft | 395 kts | 170° |
| 2026-05-06 15:04 | 53.01430 | 10.49248 | 23695 ft | 397 kts | 170° |
| 2026-05-06 15:05 | 52.98710 | 10.50093 | 24039 ft | 398 kts | 170° |
| 2026-05-06 15:05 | 52.95973 | 10.50943 | 24370 ft | 400 kts | 170° |
| 2026-05-06 15:05 | 52.93231 | 10.51794 | 24696 ft | 402 kts | 170° |
| 2026-05-06 15:05 | 52.90470 | 10.52649 | 25015 ft | 403 kts | 170° |
| 2026-05-06 15:06 | 52.87706 | 10.53504 | 25320 ft | 405 kts | 170° |
| 2026-05-06 15:06 | 52.84926 | 10.54363 | 25631 ft | 407 kts | 170° |
| 2026-05-06 15:06 | 52.82142 | 10.55222 | 25943 ft | 408 kts | 170° |
| 2026-05-06 15:06 | 52.79344 | 10.56086 | 26236 ft | 410 kts | 170° |
| 2026-05-06 15:07 | 52.76536 | 10.56952 | 26576 ft | 411 kts | 170° |
| 2026-05-06 15:07 | 52.73717 | 10.57820 | 26863 ft | 413 kts | 170° |
| 2026-05-06 15:07 | 52.70887 | 10.58690 | 27155 ft | 413 kts | 171° |
| 2026-05-06 15:07 | 52.68050 | 10.59560 | 27426 ft | 415 kts | 171° |
| 2026-05-06 15:08 | 52.65248 | 10.60419 | 27712 ft | 416 kts | 171° |
| 2026-05-06 15:08 | 52.62399 | 10.61291 | 27979 ft | 417 kts | 171° |
| 2026-05-06 15:08 | 52.59545 | 10.62163 | 28239 ft | 417 kts | 171° |
| 2026-05-06 15:08 | 52.56686 | 10.63035 | 28491 ft | 419 kts | 171° |
| 2026-05-06 15:09 | 52.53816 | 10.63909 | 28718 ft | 419 kts | 171° |
| 2026-05-06 15:09 | 52.50946 | 10.64782 | 28961 ft | 420 kts | 172° |
| 2026-05-06 15:09 | 52.48070 | 10.65655 | 29185 ft | 421 kts | 172° |
| 2026-05-06 15:09 | 52.45185 | 10.66530 | 29438 ft | 421 kts | 172° |
| 2026-05-06 15:10 | 52.42305 | 10.67402 | 29697 ft | 422 kts | 172° |
| 2026-05-06 15:10 | 52.39411 | 10.68276 | 29898 ft | 423 kts | 172° |
| 2026-05-06 15:10 | 52.36508 | 10.69152 | 30071 ft | 424 kts | 172° |
| 2026-05-06 15:10 | 52.33602 | 10.70028 | 30232 ft | 425 kts | 172° |
| 2026-05-06 15:11 | 52.30688 | 10.70905 | 30397 ft | 427 kts | 172° |
| 2026-05-06 15:11 | 52.27767 | 10.71782 | 30563 ft | 428 kts | 172° |
| 2026-05-06 15:11 | 52.24837 | 10.72662 | 30727 ft | 429 kts | 173° |
| 2026-05-06 15:11 | 52.21895 | 10.73544 | 30917 ft | 429 kts | 173° |
| 2026-05-06 15:12 | 52.19949 | 10.74126 | 31058 ft | 429 kts | 173° |
| 2026-05-06 15:12 | 52.17008 | 10.75006 | 31285 ft | 429 kts | 173° |
| 2026-05-06 15:12 | 52.14074 | 10.75883 | 31507 ft | 429 kts | 173° |
| 2026-05-06 15:12 | 52.10184 | 10.77043 | 31764 ft | 429 kts | 173° |
| 2026-05-06 15:13 | 52.08204 | 10.77632 | 31793 ft | 428 kts | 173° |
| 2026-05-06 15:13 | 52.02358 | 10.79370 | 31788 ft | 426 kts | 173° |
| 2026-05-06 15:14 | 51.96513 | 10.81102 | 31784 ft | 427 kts | 173° |
| 2026-05-06 15:14 | 51.93586 | 10.81966 | 31943 ft | 428 kts | 173° |
| 2026-05-06 15:14 | 51.90656 | 10.82831 | 32136 ft | 427 kts | 173° |
| 2026-05-06 15:14 | 51.87730 | 10.83694 | 32315 ft | 427 kts | 173° |
| 2026-05-06 15:15 | 51.84812 | 10.84638 | 32516 ft | 429 kts | 168° |
| 2026-05-06 15:15 | 51.82011 | 10.86357 | 32690 ft | 433 kts | 160° |
| 2026-05-06 15:15 | 51.79284 | 10.88305 | 32766 ft | 435 kts | 160° |
| 2026-05-06 15:16 | 51.73762 | 10.92275 | 32780 ft | 435 kts | 160° |
| 2026-05-06 15:16 | 51.68230 | 10.96229 | 32776 ft | 434 kts | 160° |
| 2026-05-06 15:17 | 51.62701 | 11.00158 | 32774 ft | 434 kts | 160° |
| 2026-05-06 15:17 | 51.57174 | 11.04071 | 32775 ft | 433 kts | 160° |
| 2026-05-06 15:18 | 51.51660 | 11.07964 | 32771 ft | 433 kts | 160° |
| 2026-05-06 15:18 | 51.46146 | 11.11846 | 32771 ft | 432 kts | 160° |
| 2026-05-06 15:19 | 51.40642 | 11.15711 | 32767 ft | 431 kts | 161° |
| 2026-05-06 15:19 | 51.35191 | 11.19529 | 32776 ft | 430 kts | 161° |
| 2026-05-06 15:20 | 51.29671 | 11.23384 | 32764 ft | 430 kts | 161° |
| 2026-05-06 15:20 | 51.24222 | 11.27180 | 32763 ft | 430 kts | 161° |
| 2026-05-06 15:21 | 51.18742 | 11.30989 | 32756 ft | 429 kts | 161° |
| 2026-05-06 15:21 | 51.13262 | 11.34788 | 32754 ft | 429 kts | 161° |
| 2026-05-06 15:22 | 51.07775 | 11.38581 | 32759 ft | 429 kts | 161° |
| 2026-05-06 15:22 | 51.02291 | 11.42362 | 32760 ft | 429 kts | 161° |
| 2026-05-06 15:23 | 50.96814 | 11.46129 | 32754 ft | 429 kts | 161° |
| 2026-05-06 15:23 | 50.91337 | 11.49887 | 32757 ft | 429 kts | 161° |
| 2026-05-06 15:24 | 50.85856 | 11.53637 | 32753 ft | 428 kts | 161° |
| 2026-05-06 15:24 | 50.80420 | 11.57347 | 32753 ft | 428 kts | 162° |
| 2026-05-06 15:25 | 50.74942 | 11.61076 | 32751 ft | 429 kts | 162° |
| 2026-05-06 15:25 | 50.69428 | 11.64820 | 32754 ft | 429 kts | 162° |
| 2026-05-06 15:26 | 50.63977 | 11.68512 | 32756 ft | 429 kts | 162° |
| 2026-05-06 15:26 | 50.58493 | 11.72217 | 32765 ft | 429 kts | 162° |
| 2026-05-06 15:27 | 50.52999 | 11.75919 | 32775 ft | 429 kts | 162° |
| 2026-05-06 15:27 | 50.47511 | 11.79608 | 32785 ft | 429 kts | 162° |
| 2026-05-06 15:28 | 50.42019 | 11.83291 | 32790 ft | 429 kts | 162° |
| 2026-05-06 15:28 | 50.36516 | 11.86970 | 32878 ft | 430 kts | 162° |
| 2026-05-06 15:28 | 50.33763 | 11.88808 | 33064 ft | 430 kts | 162° |
| 2026-05-06 15:29 | 50.31016 | 11.90641 | 33232 ft | 429 kts | 162° |
| 2026-05-06 15:29 | 50.28265 | 11.92472 | 33397 ft | 429 kts | 162° |
| 2026-05-06 15:29 | 50.25516 | 11.94300 | 33575 ft | 429 kts | 162° |
| 2026-05-06 15:29 | 50.22766 | 11.96127 | 33750 ft | 429 kts | 162° |
| 2026-05-06 15:30 | 50.20024 | 11.97945 | 33890 ft | 428 kts | 162° |
| 2026-05-06 15:30 | 50.17277 | 11.99765 | 34013 ft | 429 kts | 162° |
| 2026-05-06 15:30 | 50.14565 | 12.01559 | 34127 ft | 429 kts | 162° |
| 2026-05-06 15:30 | 50.11818 | 12.03374 | 34239 ft | 429 kts | 162° |
| 2026-05-06 15:31 | 50.09064 | 12.05192 | 34345 ft | 429 kts | 162° |
| 2026-05-06 15:31 | 50.06318 | 12.07002 | 34471 ft | 429 kts | 162° |
| 2026-05-06 15:31 | 50.03565 | 12.08813 | 34583 ft | 429 kts | 162° |
| 2026-05-06 15:32 | 49.98063 | 12.12428 | 34754 ft | 429 kts | 162° |
| 2026-05-06 15:32 | 49.95300 | 12.14240 | 34754 ft | 429 kts | 162° |
| 2026-05-06 15:32 | 49.89804 | 12.17839 | 34753 ft | 428 kts | 162° |
| 2026-05-06 15:33 | 49.84316 | 12.21423 | 34755 ft | 428 kts | 163° |
| 2026-05-06 15:33 | 49.78822 | 12.25001 | 34755 ft | 428 kts | 163° |
| 2026-05-06 15:34 | 49.73332 | 12.28569 | 34742 ft | 427 kts | 163° |
| 2026-05-06 15:34 | 49.67850 | 12.32123 | 34745 ft | 427 kts | 163° |
| 2026-05-06 15:35 | 49.62405 | 12.35644 | 34745 ft | 427 kts | 163° |
| 2026-05-06 15:35 | 49.56921 | 12.39181 | 34744 ft | 426 kts | 163° |
| 2026-05-06 15:36 | 49.51460 | 12.42696 | 34741 ft | 426 kts | 163° |
| 2026-05-06 15:36 | 49.45985 | 12.46209 | 34744 ft | 425 kts | 163° |
| 2026-05-06 15:37 | 49.40524 | 12.49708 | 34738 ft | 425 kts | 163° |
| 2026-05-06 15:37 | 49.35157 | 12.53610 | 34731 ft | 432 kts | 155° |
| 2026-05-06 15:38 | 49.30321 | 12.59246 | 34724 ft | 443 kts | 143° |
| 2026-05-06 15:38 | 49.25965 | 12.66016 | 34727 ft | 446 kts | 141° |
| 2026-05-06 15:39 | 49.21605 | 12.72752 | 34728 ft | 446 kts | 141° |
| 2026-05-06 15:39 | 49.17260 | 12.79457 | 34724 ft | 446 kts | 141° |
| 2026-05-06 15:40 | 49.12892 | 12.86186 | 34722 ft | 446 kts | 141° |
| 2026-05-06 15:40 | 49.08517 | 12.92909 | 34726 ft | 447 kts | 142° |
| 2026-05-06 15:41 | 49.04130 | 12.99632 | 34734 ft | 447 kts | 142° |
| 2026-05-06 15:41 | 48.99728 | 13.06360 | 34735 ft | 448 kts | 142° |
| 2026-05-06 15:42 | 48.95326 | 13.13074 | 34739 ft | 448 kts | 142° |
| 2026-05-06 15:42 | 48.90916 | 13.19781 | 34738 ft | 448 kts | 142° |
| 2026-05-06 15:43 | 48.86529 | 13.26434 | 34725 ft | 447 kts | 142° |
| 2026-05-06 15:43 | 48.82120 | 13.33103 | 34726 ft | 447 kts | 142° |
| 2026-05-06 15:44 | 48.77720 | 13.39744 | 34725 ft | 446 kts | 143° |
| 2026-05-06 15:44 | 48.73314 | 13.46371 | 34724 ft | 446 kts | 143° |
| 2026-05-06 15:45 | 48.68911 | 13.52979 | 34724 ft | 446 kts | 143° |
| 2026-05-06 15:45 | 48.64391 | 13.59338 | 34723 ft | 441 kts | 148° |
| 2026-05-06 15:46 | 48.59634 | 13.65013 | 34727 ft | 438 kts | 150° |
| 2026-05-06 15:46 | 48.54827 | 13.70671 | 34724 ft | 438 kts | 150° |
| 2026-05-06 15:47 | 48.50021 | 13.76327 | 34724 ft | 438 kts | 150° |
| 2026-05-06 15:47 | 48.45217 | 13.81958 | 34721 ft | 438 kts | 150° |
| 2026-05-06 15:48 | 48.40409 | 13.87573 | 34709 ft | 436 kts | 150° |
| 2026-05-06 15:48 | 48.35619 | 13.93150 | 34704 ft | 436 kts | 150° |
| 2026-05-06 15:49 | 48.30821 | 13.98720 | 34703 ft | 435 kts | 150° |
| 2026-05-06 15:49 | 48.26053 | 14.04243 | 34694 ft | 435 kts | 150° |
| 2026-05-06 15:50 | 48.21266 | 14.09775 | 34691 ft | 434 kts | 150° |
| 2026-05-06 15:50 | 48.16477 | 14.15295 | 34681 ft | 434 kts | 150° |
| 2026-05-06 15:51 | 48.11692 | 14.20797 | 34678 ft | 433 kts | 150° |
| 2026-05-06 15:51 | 48.06903 | 14.26290 | 34674 ft | 433 kts | 150° |
| 2026-05-06 15:52 | 48.02116 | 14.31768 | 34676 ft | 433 kts | 150° |
| 2026-05-06 15:52 | 47.97324 | 14.37241 | 34682 ft | 433 kts | 150° |
| 2026-05-06 15:53 | 47.92563 | 14.42668 | 34694 ft | 433 kts | 150° |
| 2026-05-06 15:53 | 47.87783 | 14.48098 | 34740 ft | 431 kts | 150° |
| 2026-05-06 15:54 | 47.83012 | 14.53500 | 34754 ft | 436 kts | 150° |
| 2026-05-06 15:54 | 47.78151 | 14.58993 | 34761 ft | 440 kts | 150° |
| 2026-05-06 15:55 | 47.73265 | 14.64506 | 34776 ft | 440 kts | 150° |
| 2026-05-06 15:55 | 47.68386 | 14.70002 | 34781 ft | 440 kts | 150° |
| 2026-05-06 15:56 | 47.63494 | 14.75493 | 34788 ft | 440 kts | 150° |
| 2026-05-06 15:56 | 47.58653 | 14.80922 | 34807 ft | 440 kts | 150° |
| 2026-05-06 15:57 | 47.53772 | 14.86376 | 34801 ft | 440 kts | 150° |
| 2026-05-06 15:57 | 47.48877 | 14.91836 | 34835 ft | 439 kts | 150° |
| 2026-05-06 15:58 | 47.44781 | 14.96391 | 34842 ft | 445 kts | 150° |
| 2026-05-06 15:58 | 47.39801 | 15.01916 | 34889 ft | 450 kts | 150° |
| 2026-05-06 15:59 | 47.34813 | 15.07446 | 34838 ft | 442 kts | 150° |
| 2026-05-06 15:59 | 47.29894 | 15.12883 | 34838 ft | 443 kts | 149° |
| 2026-05-06 16:00 | 47.24950 | 15.18325 | 34842 ft | 443 kts | 149° |
| 2026-05-06 16:00 | 47.20008 | 15.23755 | 34845 ft | 444 kts | 149° |
| 2026-05-06 16:01 | 47.15059 | 15.29183 | 34849 ft | 444 kts | 149° |
| 2026-05-06 16:01 | 47.10142 | 15.34564 | 34856 ft | 444 kts | 149° |
| 2026-05-06 16:02 | 47.05179 | 15.39979 | 34863 ft | 445 kts | 149° |
| 2026-05-06 16:02 | 47.00213 | 15.45386 | 34866 ft | 445 kts | 149° |
| 2026-05-06 16:03 | 46.95243 | 15.50785 | 34865 ft | 445 kts | 149° |
| 2026-05-06 16:03 | 46.90264 | 15.56182 | 34862 ft | 445 kts | 149° |
| 2026-05-06 16:04 | 46.85291 | 15.61561 | 34866 ft | 445 kts | 149° |
| 2026-05-06 16:04 | 46.80336 | 15.66907 | 34870 ft | 445 kts | 149° |
| 2026-05-06 16:05 | 46.75346 | 15.72278 | 34885 ft | 445 kts | 149° |
| 2026-05-06 16:05 | 46.70364 | 15.77629 | 34889 ft | 444 kts | 149° |
| 2026-05-06 16:06 | 46.65389 | 15.82960 | 34893 ft | 443 kts | 149° |
| 2026-05-06 16:06 | 46.60415 | 15.88276 | 34893 ft | 443 kts | 149° |
| 2026-05-06 16:07 | 46.55454 | 15.93566 | 34894 ft | 441 kts | 149° |
| 2026-05-06 16:07 | 46.50508 | 15.98828 | 34885 ft | 440 kts | 149° |
| 2026-05-06 16:08 | 46.45574 | 16.04064 | 34876 ft | 439 kts | 149° |
| 2026-05-06 16:08 | 46.40675 | 16.09251 | 34871 ft | 438 kts | 149° |
| 2026-05-06 16:09 | 46.35758 | 16.14446 | 34865 ft | 437 kts | 149° |
| 2026-05-06 16:09 | 46.30843 | 16.19626 | 34863 ft | 437 kts | 149° |
| 2026-05-06 16:10 | 46.25930 | 16.24792 | 34861 ft | 436 kts | 149° |
| 2026-05-06 16:10 | 46.21010 | 16.29954 | 34854 ft | 437 kts | 149° |
| 2026-05-06 16:11 | 46.16083 | 16.35112 | 34855 ft | 438 kts | 149° |
| 2026-05-06 16:11 | 46.11133 | 16.40282 | 34855 ft | 439 kts | 149° |
| 2026-05-06 16:12 | 46.06195 | 16.45428 | 34864 ft | 441 kts | 149° |
| 2026-05-06 16:12 | 46.01206 | 16.50615 | 34874 ft | 443 kts | 149° |
| 2026-05-06 16:13 | 45.96188 | 16.55820 | 34890 ft | 445 kts | 149° |
| 2026-05-06 16:13 | 45.91152 | 16.61033 | 34909 ft | 447 kts | 149° |
| 2026-05-06 16:14 | 45.86093 | 16.66257 | 34933 ft | 448 kts | 149° |
| 2026-05-06 16:14 | 45.81046 | 16.71457 | 34941 ft | 450 kts | 149° |
| 2026-05-06 16:15 | 45.75961 | 16.76685 | 34951 ft | 450 kts | 149° |
| 2026-05-06 16:15 | 45.70866 | 16.81911 | 34950 ft | 450 kts | 149° |
| 2026-05-06 16:16 | 45.65773 | 16.87122 | 34943 ft | 450 kts | 149° |
| 2026-05-06 16:16 | 45.60680 | 16.92322 | 34939 ft | 449 kts | 149° |
| 2026-05-06 16:17 | 45.55588 | 16.97509 | 34925 ft | 449 kts | 149° |
| 2026-05-06 16:17 | 45.50505 | 17.02675 | 34911 ft | 448 kts | 148° |
| 2026-05-06 16:18 | 45.45458 | 17.07792 | 34905 ft | 448 kts | 148° |
| 2026-05-06 16:18 | 45.40380 | 17.12931 | 34897 ft | 447 kts | 148° |
| 2026-05-06 16:19 | 45.35309 | 17.18050 | 34888 ft | 447 kts | 149° |
| 2026-05-06 16:19 | 45.30230 | 17.23166 | 34891 ft | 447 kts | 149° |
| 2026-05-06 16:20 | 45.25147 | 17.28276 | 34897 ft | 448 kts | 149° |
| 2026-05-06 16:20 | 45.20050 | 17.33393 | 34897 ft | 448 kts | 149° |
| 2026-05-06 16:21 | 45.14983 | 17.38470 | 34897 ft | 449 kts | 149° |
| 2026-05-06 16:21 | 45.09948 | 17.43749 | 34896 ft | 452 kts | 145° |
| 2026-05-06 16:22 | 45.05057 | 17.49365 | 34896 ft | 453 kts | 145° |
| 2026-05-06 16:22 | 45.00136 | 17.54959 | 34901 ft | 454 kts | 146° |
| 2026-05-06 16:23 | 44.95184 | 17.60515 | 34905 ft | 455 kts | 146° |
| 2026-05-06 16:23 | 44.90215 | 17.66067 | 34905 ft | 456 kts | 146° |
| 2026-05-06 16:24 | 44.85256 | 17.71594 | 34912 ft | 457 kts | 146° |
| 2026-05-06 16:24 | 44.80256 | 17.77155 | 34914 ft | 458 kts | 146° |
| 2026-05-06 16:25 | 44.75245 | 17.82717 | 34920 ft | 459 kts | 146° |
| 2026-05-06 16:25 | 44.70218 | 17.88283 | 34918 ft | 460 kts | 146° |
| 2026-05-06 16:26 | 44.65184 | 17.93846 | 34923 ft | 461 kts | 146° |
| 2026-05-06 16:26 | 44.60177 | 17.99364 | 34923 ft | 461 kts | 146° |
| 2026-05-06 16:27 | 44.55124 | 18.04922 | 34931 ft | 461 kts | 146° |
| 2026-05-06 16:27 | 44.50071 | 18.10465 | 34925 ft | 461 kts | 146° |
| 2026-05-06 16:28 | 44.45006 | 18.16010 | 34932 ft | 461 kts | 146° |
| 2026-05-06 16:28 | 44.39942 | 18.21543 | 34926 ft | 461 kts | 146° |
| 2026-05-06 16:29 | 44.34907 | 18.27029 | 34935 ft | 462 kts | 146° |
| 2026-05-06 16:29 | 44.29839 | 18.32540 | 34933 ft | 462 kts | 146° |
| 2026-05-06 16:30 | 44.25592 | 18.37148 | 34930 ft | 462 kts | 146° |
| 2026-05-06 16:30 | 44.19692 | 18.43535 | 34941 ft | 462 kts | 146° |
| 2026-05-06 16:31 | 44.14606 | 18.49029 | 34952 ft | 462 kts | 146° |
| 2026-05-06 16:31 | 44.09521 | 18.54509 | 34951 ft | 461 kts | 146° |
| 2026-05-06 16:32 | 44.04475 | 18.59935 | 34951 ft | 461 kts | 146° |
| 2026-05-06 16:32 | 43.99392 | 18.65388 | 34940 ft | 462 kts | 146° |
| 2026-05-06 16:33 | 43.94308 | 18.70830 | 34944 ft | 462 kts | 146° |
| 2026-05-06 16:34 | 43.86663 | 18.78991 | 34942 ft | 462 kts | 146° |
| 2026-05-06 16:34 | 43.81554 | 18.84430 | 34953 ft | 463 kts | 146° |
| 2026-05-06 16:35 | 43.76439 | 18.89863 | 34952 ft | 464 kts | 146° |
| 2026-05-06 16:35 | 43.71311 | 18.95298 | 34960 ft | 465 kts | 146° |
| 2026-05-06 16:36 | 43.66164 | 19.00741 | 34971 ft | 466 kts | 146° |
| 2026-05-06 16:36 | 43.61037 | 19.06151 | 34981 ft | 467 kts | 146° |
| 2026-05-06 16:37 | 43.55853 | 19.11612 | 34990 ft | 469 kts | 146° |
| 2026-05-06 16:37 | 43.50691 | 19.17123 | 34991 ft | 470 kts | 143° |
| 2026-05-06 16:38 | 43.45661 | 19.22893 | 35000 ft | 471 kts | 143° |
| 2026-05-06 16:38 | 43.40624 | 19.28662 | 35007 ft | 471 kts | 143° |